sensor_id;sensor_type;location;lat;lon;timestamp;P1;durP1;ratioP1;P2;durP2;ratioP2
27728;SDS011;15126;42.186;24.340;2023-08-30T00:02:24;14.33;;;13.03;;
27728;SDS011;15126;42.186;24.340;2023-08-30T00:04:51;13.93;;;12.53;;
27728;SDS011;15126;42.186;24.340;2023-08-30T00:07:18;14.70;;;12.73;;
27728;SDS011;15126;42.186;24.340;2023-08-30T00:09:44;14.17;;;12.83;;
27728;SDS011;15126;42.186;24.340;2023-08-30T00:12:12;14.80;;;12.13;;
27728;SDS011;15126;42.186;24.340;2023-08-30T00:14:39;15.00;;;12.90;;
27728;SDS011;15126;42.186;24.340;2023-08-30T00:17:06;14.87;;;13.53;;
27728;SDS011;15126;42.186;24.340;2023-08-30T00:19:33;18.17;;;14.37;;
27728;SDS011;15126;42.186;24.340;2023-08-30T00:21:59;15.27;;;12.63;;
27728;SDS011;15126;42.186;24.340;2023-08-30T00:24:26;14.47;;;13.07;;
27728;SDS011;15126;42.186;24.340;2023-08-30T00:26:53;18.27;;;13.60;;
27728;SDS011;15126;42.186;24.340;2023-08-30T00:29:22;14.97;;;13.57;;
27728;SDS011;15126;42.186;24.340;2023-08-30T00:31:48;14.57;;;12.70;;
27728;SDS011;15126;42.186;24.340;2023-08-30T00:34:15;15.60;;;13.67;;
27728;SDS011;15126;42.186;24.340;2023-08-30T00:36:42;19.97;;;14.90;;
27728;SDS011;15126;42.186;24.340;2023-08-30T00:39:09;15.27;;;13.13;;
27728;SDS011;15126;42.186;24.340;2023-08-30T00:41:35;15.63;;;14.13;;
27728;SDS011;15126;42.186;24.340;2023-08-30T00:44:02;15.60;;;14.00;;
27728;SDS011;15126;42.186;24.340;2023-08-30T00:46:31;15.43;;;13.93;;
27728;SDS011;15126;42.186;24.340;2023-08-30T00:48:59;14.33;;;13.07;;
27728;SDS011;15126;42.186;24.340;2023-08-30T00:51:26;15.43;;;13.83;;
27728;SDS011;15126;42.186;24.340;2023-08-30T00:53:53;19.90;;;14.20;;
27728;SDS011;15126;42.186;24.340;2023-08-30T00:56:20;18.53;;;14.87;;
27728;SDS011;15126;42.186;24.340;2023-08-30T00:58:48;15.47;;;13.87;;
27728;SDS011;15126;42.186;24.340;2023-08-30T01:01:16;15.40;;;13.83;;
27728;SDS011;15126;42.186;24.340;2023-08-30T01:03:45;15.20;;;13.80;;
27728;SDS011;15126;42.186;24.340;2023-08-30T01:06:11;13.93;;;12.77;;
27728;SDS011;15126;42.186;24.340;2023-08-30T01:08:38;15.87;;;14.37;;
27728;SDS011;15126;42.186;24.340;2023-08-30T01:11:08;14.93;;;13.37;;
27728;SDS011;15126;42.186;24.340;2023-08-30T01:13:44;15.60;;;14.07;;
27728;SDS011;15126;42.186;24.340;2023-08-30T01:16:19;15.60;;;13.87;;
27728;SDS011;15126;42.186;24.340;2023-08-30T01:18:50;16.43;;;13.70;;
27728;SDS011;15126;42.186;24.340;2023-08-30T01:21:24;16.60;;;13.73;;
27728;SDS011;15126;42.186;24.340;2023-08-30T01:24:10;15.20;;;13.53;;
27728;SDS011;15126;42.186;24.340;2023-08-30T01:26:41;32.40;;;15.80;;
27728;SDS011;15126;42.186;24.340;2023-08-30T01:29:12;17.07;;;14.07;;
27728;SDS011;15126;42.186;24.340;2023-08-30T01:31:43;21.07;;;14.57;;
27728;SDS011;15126;42.186;24.340;2023-08-30T01:34:12;15.90;;;14.40;;
27728;SDS011;15126;42.186;24.340;2023-08-30T01:36:39;16.83;;;14.70;;
27728;SDS011;15126;42.186;24.340;2023-08-30T01:39:08;15.87;;;13.73;;
27728;SDS011;15126;42.186;24.340;2023-08-30T01:41:36;17.07;;;15.27;;
27728;SDS011;15126;42.186;24.340;2023-08-30T01:44:05;15.33;;;13.50;;
27728;SDS011;15126;42.186;24.340;2023-08-30T01:46:34;16.50;;;14.03;;
27728;SDS011;15126;42.186;24.340;2023-08-30T01:49:02;16.40;;;14.10;;
27728;SDS011;15126;42.186;24.340;2023-08-30T01:51:30;17.23;;;15.40;;
27728;SDS011;15126;42.186;24.340;2023-08-30T01:53:58;15.47;;;13.87;;
27728;SDS011;15126;42.186;24.340;2023-08-30T01:56:26;15.43;;;14.03;;
27728;SDS011;15126;42.186;24.340;2023-08-30T01:58:53;15.30;;;13.77;;
27728;SDS011;15126;42.186;24.340;2023-08-30T02:01:20;16.43;;;13.97;;
27728;SDS011;15126;42.186;24.340;2023-08-30T02:03:48;14.13;;;12.67;;
27728;SDS011;15126;42.186;24.340;2023-08-30T02:06:17;23.87;;;12.23;;
27728;SDS011;15126;42.186;24.340;2023-08-30T02:08:52;16.23;;;13.23;;
27728;SDS011;15126;42.186;24.340;2023-08-30T02:11:22;16.50;;;12.93;;
27728;SDS011;15126;42.186;24.340;2023-08-30T02:13:52;14.90;;;13.27;;
27728;SDS011;15126;42.186;24.340;2023-08-30T02:16:20;13.97;;;12.57;;
27728;SDS011;15126;42.186;24.340;2023-08-30T02:18:50;14.17;;;12.77;;
27728;SDS011;15126;42.186;24.340;2023-08-30T02:21:18;13.23;;;11.93;;
27728;SDS011;15126;42.186;24.340;2023-08-30T02:23:48;15.40;;;12.73;;
27728;SDS011;15126;42.186;24.340;2023-08-30T02:26:17;15.00;;;12.33;;
27728;SDS011;15126;42.186;24.340;2023-08-30T02:28:44;17.03;;;11.37;;
27728;SDS011;15126;42.186;24.340;2023-08-30T02:31:11;13.80;;;12.57;;
27728;SDS011;15126;42.186;24.340;2023-08-30T02:33:38;13.53;;;12.03;;
27728;SDS011;15126;42.186;24.340;2023-08-30T02:36:07;13.20;;;11.73;;
27728;SDS011;15126;42.186;24.340;2023-08-30T02:38:34;14.20;;;12.70;;
27728;SDS011;15126;42.186;24.340;2023-08-30T02:41:00;14.77;;;13.20;;
27728;SDS011;15126;42.186;24.340;2023-08-30T02:43:28;13.23;;;11.93;;
27728;SDS011;15126;42.186;24.340;2023-08-30T02:45:54;14.60;;;12.00;;
27728;SDS011;15126;42.186;24.340;2023-08-30T02:48:21;18.37;;;12.73;;
27728;SDS011;15126;42.186;24.340;2023-08-30T02:50:48;13.47;;;12.20;;
27728;SDS011;15126;42.186;24.340;2023-08-30T02:53:16;14.73;;;13.30;;
27728;SDS011;15126;42.186;24.340;2023-08-30T02:55:43;13.23;;;12.03;;
27728;SDS011;15126;42.186;24.340;2023-08-30T02:58:09;15.83;;;14.27;;
27728;SDS011;15126;42.186;24.340;2023-08-30T03:00:36;17.77;;;14.73;;
27728;SDS011;15126;42.186;24.340;2023-08-30T03:03:03;14.60;;;13.00;;
27728;SDS011;15126;42.186;24.340;2023-08-30T03:05:30;21.73;;;16.10;;
27728;SDS011;15126;42.186;24.340;2023-08-30T03:07:57;16.63;;;15.00;;
27728;SDS011;15126;42.186;24.340;2023-08-30T03:10:25;20.63;;;16.90;;
27728;SDS011;15126;42.186;24.340;2023-08-30T03:12:52;17.03;;;15.37;;
27728;SDS011;15126;42.186;24.340;2023-08-30T03:15:19;17.53;;;15.80;;
27728;SDS011;15126;42.186;24.340;2023-08-30T03:17:45;15.67;;;14.27;;
27728;SDS011;15126;42.186;24.340;2023-08-30T03:20:12;17.00;;;15.40;;
27728;SDS011;15126;42.186;24.340;2023-08-30T03:22:39;17.33;;;15.50;;
27728;SDS011;15126;42.186;24.340;2023-08-30T03:25:06;16.57;;;14.73;;
27728;SDS011;15126;42.186;24.340;2023-08-30T03:27:36;15.27;;;13.77;;
27728;SDS011;15126;42.186;24.340;2023-08-30T03:30:04;15.70;;;14.03;;
27728;SDS011;15126;42.186;24.340;2023-08-30T03:32:32;16.13;;;14.53;;
27728;SDS011;15126;42.186;24.340;2023-08-30T03:34:58;19.43;;;14.13;;
27728;SDS011;15126;42.186;24.340;2023-08-30T03:37:25;16.17;;;14.30;;
27728;SDS011;15126;42.186;24.340;2023-08-30T03:39:52;14.90;;;13.33;;
27728;SDS011;15126;42.186;24.340;2023-08-30T03:42:19;20.60;;;15.53;;
27728;SDS011;15126;42.186;24.340;2023-08-30T03:44:47;24.10;;;21.60;;
27728;SDS011;15126;42.186;24.340;2023-08-30T03:47:13;17.87;;;14.37;;
27728;SDS011;15126;42.186;24.340;2023-08-30T03:49:40;18.03;;;16.33;;
27728;SDS011;15126;42.186;24.340;2023-08-30T03:52:07;17.53;;;15.83;;
27728;SDS011;15126;42.186;24.340;2023-08-30T03:54:34;16.23;;;14.57;;
27728;SDS011;15126;42.186;24.340;2023-08-30T03:57:01;17.53;;;15.63;;
27728;SDS011;15126;42.186;24.340;2023-08-30T03:59:28;26.30;;;15.73;;
27728;SDS011;15126;42.186;24.340;2023-08-30T04:01:56;16.00;;;14.43;;
27728;SDS011;15126;42.186;24.340;2023-08-30T04:04:23;16.50;;;15.00;;
27728;SDS011;15126;42.186;24.340;2023-08-30T04:06:49;14.33;;;12.87;;
27728;SDS011;15126;42.186;24.340;2023-08-30T04:09:16;16.70;;;15.10;;
27728;SDS011;15126;42.186;24.340;2023-08-30T04:11:43;18.97;;;15.83;;
27728;SDS011;15126;42.186;24.340;2023-08-30T04:14:10;20.47;;;14.07;;
27728;SDS011;15126;42.186;24.340;2023-08-30T04:16:37;19.20;;;14.60;;
27728;SDS011;15126;42.186;24.340;2023-08-30T04:19:05;17.00;;;15.20;;
27728;SDS011;15126;42.186;24.340;2023-08-30T04:21:32;13.43;;;12.13;;
27728;SDS011;15126;42.186;24.340;2023-08-30T04:23:58;17.63;;;15.97;;
27728;SDS011;15126;42.186;24.340;2023-08-30T04:26:25;15.77;;;14.20;;
27728;SDS011;15126;42.186;24.340;2023-08-30T04:28:52;14.60;;;13.30;;
27728;SDS011;15126;42.186;24.340;2023-08-30T04:31:19;19.63;;;13.97;;
27728;SDS011;15126;42.186;24.340;2023-08-30T04:33:45;15.63;;;13.67;;
27728;SDS011;15126;42.186;24.340;2023-08-30T04:36:13;14.90;;;13.40;;
27728;SDS011;15126;42.186;24.340;2023-08-30T04:38:40;20.30;;;13.60;;
27728;SDS011;15126;42.186;24.340;2023-08-30T04:41:07;18.77;;;15.07;;
27728;SDS011;15126;42.186;24.340;2023-08-30T04:43:34;18.73;;;15.30;;
27728;SDS011;15126;42.186;24.340;2023-08-30T04:46:01;14.87;;;13.37;;
27728;SDS011;15126;42.186;24.340;2023-08-30T04:48:27;16.87;;;15.17;;
27728;SDS011;15126;42.186;24.340;2023-08-30T04:50:58;17.93;;;14.20;;
27728;SDS011;15126;42.186;24.340;2023-08-30T04:53:27;17.90;;;14.37;;
27728;SDS011;15126;42.186;24.340;2023-08-30T04:55:54;16.57;;;14.97;;
27728;SDS011;15126;42.186;24.340;2023-08-30T04:58:21;21.60;;;16.47;;
27728;SDS011;15126;42.186;24.340;2023-08-30T05:00:47;19.07;;;13.90;;
27728;SDS011;15126;42.186;24.340;2023-08-30T05:03:14;21.87;;;19.70;;
27728;SDS011;15126;42.186;24.340;2023-08-30T05:05:44;24.57;;;13.13;;
27728;SDS011;15126;42.186;24.340;2023-08-30T05:08:11;16.43;;;14.80;;
27728;SDS011;15126;42.186;24.340;2023-08-30T05:10:39;15.07;;;12.70;;
27728;SDS011;15126;42.186;24.340;2023-08-30T05:13:08;24.83;;;14.10;;
27728;SDS011;15126;42.186;24.340;2023-08-30T05:15:35;15.63;;;13.90;;
27728;SDS011;15126;42.186;24.340;2023-08-30T05:18:05;19.43;;;13.30;;
27728;SDS011;15126;42.186;24.340;2023-08-30T05:20:32;20.80;;;18.57;;
27728;SDS011;15126;42.186;24.340;2023-08-30T05:22:58;14.17;;;12.63;;
27728;SDS011;15126;42.186;24.340;2023-08-30T05:25:25;14.40;;;12.80;;
27728;SDS011;15126;42.186;24.340;2023-08-30T05:27:53;14.00;;;12.60;;
27728;SDS011;15126;42.186;24.340;2023-08-30T05:30:20;16.90;;;12.83;;
27728;SDS011;15126;42.186;24.340;2023-08-30T05:32:47;18.03;;;13.50;;
27728;SDS011;15126;42.186;24.340;2023-08-30T05:35:14;19.20;;;12.00;;
27728;SDS011;15126;42.186;24.340;2023-08-30T05:37:41;18.07;;;11.43;;
27728;SDS011;15126;42.186;24.340;2023-08-30T05:40:08;16.03;;;12.43;;
27728;SDS011;15126;42.186;24.340;2023-08-30T05:42:36;24.00;;;13.27;;
27728;SDS011;15126;42.186;24.340;2023-08-30T05:45:04;11.83;;;10.23;;
27728;SDS011;15126;42.186;24.340;2023-08-30T05:47:32;15.67;;;12.97;;
27728;SDS011;15126;42.186;24.340;2023-08-30T05:49:59;17.83;;;12.40;;
27728;SDS011;15126;42.186;24.340;2023-08-30T05:52:26;17.67;;;12.13;;
27728;SDS011;15126;42.186;24.340;2023-08-30T05:54:53;13.30;;;12.10;;
27728;SDS011;15126;42.186;24.340;2023-08-30T05:57:20;13.70;;;11.90;;
27728;SDS011;15126;42.186;24.340;2023-08-30T05:59:48;13.47;;;12.23;;
27728;SDS011;15126;42.186;24.340;2023-08-30T06:02:17;14.87;;;13.33;;
27728;SDS011;15126;42.186;24.340;2023-08-30T06:04:43;11.30;;;10.30;;
27728;SDS011;15126;42.186;24.340;2023-08-30T06:07:10;13.30;;;11.30;;
27728;SDS011;15126;42.186;24.340;2023-08-30T06:09:37;18.57;;;12.20;;
27728;SDS011;15126;42.186;24.340;2023-08-30T06:12:04;19.97;;;12.97;;
27728;SDS011;15126;42.186;24.340;2023-08-30T06:14:31;14.50;;;11.30;;
27728;SDS011;15126;42.186;24.340;2023-08-30T06:16:58;13.00;;;10.67;;
27728;SDS011;15126;42.186;24.340;2023-08-30T06:19:26;13.70;;;11.60;;
27728;SDS011;15126;42.186;24.340;2023-08-30T06:21:53;13.07;;;10.80;;
27728;SDS011;15126;42.186;24.340;2023-08-30T06:24:20;15.00;;;9.93;;
27728;SDS011;15126;42.186;24.340;2023-08-30T06:26:48;14.00;;;10.63;;
27728;SDS011;15126;42.186;24.340;2023-08-30T06:29:14;13.43;;;9.53;;
27728;SDS011;15126;42.186;24.340;2023-08-30T06:31:41;11.37;;;10.37;;
27728;SDS011;15126;42.186;24.340;2023-08-30T06:34:09;12.07;;;10.10;;
27728;SDS011;15126;42.186;24.340;2023-08-30T06:36:37;12.60;;;10.53;;
27728;SDS011;15126;42.186;24.340;2023-08-30T06:39:04;14.27;;;10.07;;
27728;SDS011;15126;42.186;24.340;2023-08-30T06:41:31;11.23;;;10.00;;
27728;SDS011;15126;42.186;24.340;2023-08-30T06:43:57;11.97;;;10.73;;
27728;SDS011;15126;42.186;24.340;2023-08-30T06:46:24;12.00;;;10.13;;
27728;SDS011;15126;42.186;24.340;2023-08-30T06:48:51;16.80;;;11.20;;
27728;SDS011;15126;42.186;24.340;2023-08-30T06:51:18;9.90;;;9.03;;
27728;SDS011;15126;42.186;24.340;2023-08-30T06:53:46;14.97;;;9.70;;
27728;SDS011;15126;42.186;24.340;2023-08-30T06:56:13;10.87;;;9.63;;
27728;SDS011;15126;42.186;24.340;2023-08-30T06:58:40;10.23;;;9.20;;
27728;SDS011;15126;42.186;24.340;2023-08-30T07:01:06;10.60;;;9.60;;
27728;SDS011;15126;42.186;24.340;2023-08-30T07:03:33;13.15;;;10.45;;
27728;SDS011;15126;42.186;24.340;2023-08-30T07:06:00;9.35;;;8.65;;
27728;SDS011;15126;42.186;24.340;2023-08-30T07:08:27;10.68;;;9.60;;
27728;SDS011;15126;42.186;24.340;2023-08-30T07:10:55;10.38;;;9.32;;
27728;SDS011;15126;42.186;24.340;2023-08-30T07:13:22;11.70;;;8.70;;
27728;SDS011;15126;42.186;24.340;2023-08-30T07:15:49;12.93;;;10.00;;
27728;SDS011;15126;42.186;24.340;2023-08-30T07:18:16;11.57;;;9.20;;
27728;SDS011;15126;42.186;24.340;2023-08-30T07:20:43;10.07;;;9.05;;
27728;SDS011;15126;42.186;24.340;2023-08-30T07:23:09;11.70;;;10.32;;
27728;SDS011;15126;42.186;24.340;2023-08-30T07:25:36;12.77;;;10.45;;
27728;SDS011;15126;42.186;24.340;2023-08-30T07:28:05;10.95;;;9.93;;
27728;SDS011;15126;42.186;24.340;2023-08-30T07:30:32;11.45;;;9.65;;
27728;SDS011;15126;42.186;24.340;2023-08-30T07:33:00;12.98;;;9.82;;
27728;SDS011;15126;42.186;24.340;2023-08-30T07:35:27;14.15;;;9.65;;
27728;SDS011;15126;42.186;24.340;2023-08-30T07:37:53;10.68;;;9.77;;
27728;SDS011;15126;42.186;24.340;2023-08-30T07:40:20;16.83;;;9.07;;
27728;SDS011;15126;42.186;24.340;2023-08-30T07:42:51;10.65;;;9.65;;
27728;SDS011;15126;42.186;24.340;2023-08-30T07:45:19;10.38;;;9.32;;
27728;SDS011;15126;42.186;24.340;2023-08-30T07:47:46;9.95;;;9.10;;
27728;SDS011;15126;42.186;24.340;2023-08-30T07:50:13;15.18;;;9.93;;
27728;SDS011;15126;42.186;24.340;2023-08-30T07:52:39;13.23;;;10.90;;
27728;SDS011;15126;42.186;24.340;2023-08-30T07:55:06;11.13;;;9.75;;
27728;SDS011;15126;42.186;24.340;2023-08-30T07:57:34;10.00;;;9.05;;
27728;SDS011;15126;42.186;24.340;2023-08-30T08:00:01;11.80;;;10.40;;
27728;SDS011;15126;42.186;24.340;2023-08-30T08:02:30;13.55;;;9.98;;
27728;SDS011;15126;42.186;24.340;2023-08-30T08:04:57;11.73;;;10.38;;
27728;SDS011;15126;42.186;24.340;2023-08-30T08:07:24;11.63;;;10.38;;
27728;SDS011;15126;42.186;24.340;2023-08-30T08:09:51;11.15;;;10.07;;
27728;SDS011;15126;42.186;24.340;2023-08-30T08:12:18;14.50;;;11.63;;
27728;SDS011;15126;42.186;24.340;2023-08-30T08:14:44;10.93;;;10.02;;
27728;SDS011;15126;42.186;24.340;2023-08-30T08:17:11;17.20;;;11.15;;
27728;SDS011;15126;42.186;24.340;2023-08-30T08:19:40;17.25;;;11.07;;
27728;SDS011;15126;42.186;24.340;2023-08-30T08:22:08;14.57;;;11.20;;
27728;SDS011;15126;42.186;24.340;2023-08-30T08:24:34;14.18;;;11.70;;
27728;SDS011;15126;42.186;24.340;2023-08-30T08:27:01;14.85;;;11.95;;
27728;SDS011;15126;42.186;24.340;2023-08-30T08:29:31;12.43;;;11.32;;
27728;SDS011;15126;42.186;24.340;2023-08-30T08:31:58;13.25;;;12.00;;
27728;SDS011;15126;42.186;24.340;2023-08-30T08:34:25;13.93;;;12.93;;
27728;SDS011;15126;42.186;24.340;2023-08-30T08:36:53;13.52;;;11.77;;
27728;SDS011;15126;42.186;24.340;2023-08-30T08:39:20;12.55;;;11.38;;
27728;SDS011;15126;42.186;24.340;2023-08-30T08:41:47;13.52;;;11.02;;
27728;SDS011;15126;42.186;24.340;2023-08-30T08:44:18;12.27;;;11.10;;
27728;SDS011;15126;42.186;24.340;2023-08-30T08:46:45;13.25;;;12.15;;
27728;SDS011;15126;42.186;24.340;2023-08-30T08:49:13;13.15;;;11.80;;
27728;SDS011;15126;42.186;24.340;2023-08-30T08:51:42;14.13;;;11.57;;
27728;SDS011;15126;42.186;24.340;2023-08-30T08:54:11;12.38;;;11.23;;
27728;SDS011;15126;42.186;24.340;2023-08-30T08:56:39;12.45;;;11.20;;
27728;SDS011;15126;42.186;24.340;2023-08-30T08:59:06;18.50;;;12.88;;
27728;SDS011;15126;42.186;24.340;2023-08-30T09:01:33;13.10;;;12.07;;
27728;SDS011;15126;42.186;24.340;2023-08-30T09:04:05;20.90;;;11.77;;
27728;SDS011;15126;42.186;24.340;2023-08-30T09:06:32;12.30;;;11.20;;
27728;SDS011;15126;42.186;24.340;2023-08-30T09:08:59;12.30;;;11.20;;
27728;SDS011;15126;42.186;24.340;2023-08-30T09:11:30;12.20;;;10.93;;
27728;SDS011;15126;42.186;24.340;2023-08-30T09:13:56;18.00;;;11.77;;
27728;SDS011;15126;42.186;24.340;2023-08-30T09:16:23;12.48;;;11.38;;
27728;SDS011;15126;42.186;24.340;2023-08-30T09:18:57;12.18;;;10.95;;
27728;SDS011;15126;42.186;24.340;2023-08-30T09:25:06;12.10;;;10.90;;
27728;SDS011;15126;42.186;24.340;2023-08-30T09:27:39;14.00;;;12.27;;
27728;SDS011;15126;42.186;24.340;2023-08-30T09:30:08;12.32;;;11.32;;
27728;SDS011;15126;42.186;24.340;2023-08-30T09:32:39;14.32;;;12.40;;
27728;SDS011;15126;42.186;24.340;2023-08-30T09:35:07;15.02;;;13.50;;
27728;SDS011;15126;42.186;24.340;2023-08-30T09:37:35;13.50;;;12.20;;
27728;SDS011;15126;42.186;24.340;2023-08-30T09:40:03;13.82;;;12.27;;
27728;SDS011;15126;42.186;24.340;2023-08-30T09:42:30;12.20;;;11.10;;
27728;SDS011;15126;42.186;24.340;2023-08-30T09:44:59;13.02;;;11.88;;
27728;SDS011;15126;42.186;24.340;2023-08-30T09:47:26;14.60;;;13.18;;
27728;SDS011;15126;42.186;24.340;2023-08-30T09:49:54;13.63;;;12.30;;
27728;SDS011;15126;42.186;24.340;2023-08-30T09:52:23;14.02;;;12.35;;
27728;SDS011;15126;42.186;24.340;2023-08-30T09:54:51;15.15;;;12.10;;
27728;SDS011;15126;42.186;24.340;2023-08-30T09:57:18;15.68;;;12.90;;
27728;SDS011;15126;42.186;24.340;2023-08-30T09:59:47;14.30;;;12.90;;
27728;SDS011;15126;42.186;24.340;2023-08-30T10:02:16;14.30;;;12.80;;
27728;SDS011;15126;42.186;24.340;2023-08-30T10:04:44;16.15;;;12.40;;
27728;SDS011;15126;42.186;24.340;2023-08-30T10:07:12;13.95;;;12.50;;
27728;SDS011;15126;42.186;24.340;2023-08-30T10:09:40;12.10;;;11.18;;
27728;SDS011;15126;42.186;24.340;2023-08-30T10:12:08;13.55;;;12.32;;
27728;SDS011;15126;42.186;24.340;2023-08-30T10:14:36;12.45;;;11.45;;
27728;SDS011;15126;42.186;24.340;2023-08-30T10:17:03;13.55;;;12.40;;
27728;SDS011;15126;42.186;24.340;2023-08-30T10:19:35;13.75;;;12.10;;
27728;SDS011;15126;42.186;24.340;2023-08-30T10:22:04;14.38;;;12.73;;
27728;SDS011;15126;42.186;24.340;2023-08-30T10:24:35;15.25;;;13.70;;
27728;SDS011;15126;42.186;24.340;2023-08-30T10:27:07;13.90;;;12.75;;
27728;SDS011;15126;42.186;24.340;2023-08-30T10:29:36;13.98;;;11.80;;
27728;SDS011;15126;42.186;24.340;2023-08-30T10:32:06;14.77;;;12.98;;
27728;SDS011;15126;42.186;24.340;2023-08-30T10:34:35;14.25;;;12.95;;
27728;SDS011;15126;42.186;24.340;2023-08-30T10:37:03;13.32;;;12.10;;
27728;SDS011;15126;42.186;24.340;2023-08-30T10:39:33;13.93;;;12.52;;
27728;SDS011;15126;42.186;24.340;2023-08-30T10:42:07;13.00;;;11.75;;
27728;SDS011;15126;42.186;24.340;2023-08-30T10:44:35;14.10;;;12.27;;
27728;SDS011;15126;42.186;24.340;2023-08-30T10:47:17;13.73;;;12.27;;
27728;SDS011;15126;42.186;24.340;2023-08-30T10:49:47;13.05;;;11.93;;
27728;SDS011;15126;42.186;24.340;2023-08-30T10:52:15;13.35;;;12.07;;
27728;SDS011;15126;42.186;24.340;2023-08-30T10:54:52;14.00;;;12.57;;
27728;SDS011;15126;42.186;24.340;2023-08-30T10:57:19;16.10;;;12.80;;
27728;SDS011;15126;42.186;24.340;2023-08-30T11:00:06;15.27;;;12.18;;
27728;SDS011;15126;42.186;24.340;2023-08-30T11:02:34;13.63;;;12.32;;
27728;SDS011;15126;42.186;24.340;2023-08-30T11:05:03;13.98;;;12.20;;
27728;SDS011;15126;42.186;24.340;2023-08-30T11:07:33;12.88;;;11.05;;
27728;SDS011;15126;42.186;24.340;2023-08-30T11:10:02;23.45;;;12.98;;
27728;SDS011;15126;42.186;24.340;2023-08-30T11:12:31;17.25;;;12.50;;
27728;SDS011;15126;42.186;24.340;2023-08-30T11:14:57;13.20;;;12.00;;
27728;SDS011;15126;42.186;24.340;2023-08-30T11:17:25;14.02;;;12.63;;
27728;SDS011;15126;42.186;24.340;2023-08-30T11:19:56;15.68;;;12.07;;
27728;SDS011;15126;42.186;24.340;2023-08-30T11:22:24;14.15;;;11.73;;
27728;SDS011;15126;42.186;24.340;2023-08-30T11:24:51;12.65;;;11.55;;
27728;SDS011;15126;42.186;24.340;2023-08-30T11:27:19;13.07;;;11.80;;
27728;SDS011;15126;42.186;24.340;2023-08-30T11:29:46;13.88;;;12.77;;
27728;SDS011;15126;42.186;24.340;2023-08-30T11:32:13;15.73;;;11.07;;
27728;SDS011;15126;42.186;24.340;2023-08-30T11:34:40;13.20;;;10.80;;
27728;SDS011;15126;42.186;24.340;2023-08-30T11:37:07;14.93;;;11.85;;
27728;SDS011;15126;42.186;24.340;2023-08-30T11:39:34;13.77;;;11.90;;
27728;SDS011;15126;42.186;24.340;2023-08-30T11:42:03;16.25;;;12.98;;
27728;SDS011;15126;42.186;24.340;2023-08-30T11:44:32;14.18;;;12.40;;
27728;SDS011;15126;42.186;24.340;2023-08-30T11:46:59;12.43;;;11.25;;
27728;SDS011;15126;42.186;24.340;2023-08-30T11:49:26;11.90;;;10.70;;
27728;SDS011;15126;42.186;24.340;2023-08-30T11:51:54;17.73;;;12.75;;
27728;SDS011;15126;42.186;24.340;2023-08-30T11:54:23;12.82;;;11.68;;
27728;SDS011;15126;42.186;24.340;2023-08-30T11:56:50;14.52;;;10.80;;
27728;SDS011;15126;42.186;24.340;2023-08-30T11:59:18;15.60;;;12.68;;
27728;SDS011;15126;42.186;24.340;2023-08-30T12:01:47;14.27;;;12.98;;
27728;SDS011;15126;42.186;24.340;2023-08-30T12:04:14;12.48;;;11.38;;
27728;SDS011;15126;42.186;24.340;2023-08-30T12:06:43;16.45;;;12.00;;
27728;SDS011;15126;42.186;24.340;2023-08-30T12:09:13;15.90;;;11.60;;
27728;SDS011;15126;42.186;24.340;2023-08-30T12:11:40;14.27;;;12.90;;
27728;SDS011;15126;42.186;24.340;2023-08-30T12:14:07;13.63;;;12.07;;
27728;SDS011;15126;42.186;24.340;2023-08-30T12:16:34;13.50;;;12.40;;
27728;SDS011;15126;42.186;24.340;2023-08-30T12:19:09;12.73;;;11.45;;
27728;SDS011;15126;42.186;24.340;2023-08-30T12:21:40;16.85;;;13.07;;
27728;SDS011;15126;42.186;24.340;2023-08-30T12:24:09;15.25;;;12.32;;
27728;SDS011;15126;42.186;24.340;2023-08-30T12:26:36;13.43;;;11.98;;
27728;SDS011;15126;42.186;24.340;2023-08-30T12:29:04;13.02;;;11.23;;
27728;SDS011;15126;42.186;24.340;2023-08-30T12:31:31;12.35;;;11.25;;
27728;SDS011;15126;42.186;24.340;2023-08-30T12:33:58;14.02;;;12.73;;
27728;SDS011;15126;42.186;24.340;2023-08-30T12:36:27;15.48;;;13.95;;
27728;SDS011;15126;42.186;24.340;2023-08-30T12:38:54;13.45;;;12.35;;
27728;SDS011;15126;42.186;24.340;2023-08-30T12:41:21;13.18;;;12.25;;
27728;SDS011;15126;42.186;24.340;2023-08-30T12:43:48;16.35;;;14.63;;
27728;SDS011;15126;42.186;24.340;2023-08-30T12:46:15;16.73;;;14.63;;
27728;SDS011;15126;42.186;24.340;2023-08-30T12:48:42;14.63;;;13.23;;
27728;SDS011;15126;42.186;24.340;2023-08-30T12:51:09;14.45;;;13.05;;
27728;SDS011;15126;42.186;24.340;2023-08-30T12:53:37;14.10;;;12.73;;
27728;SDS011;15126;42.186;24.340;2023-08-30T12:56:04;15.40;;;12.73;;
27728;SDS011;15126;42.186;24.340;2023-08-30T12:58:31;15.45;;;13.82;;
27728;SDS011;15126;42.186;24.340;2023-08-30T13:00:57;13.82;;;12.38;;
27728;SDS011;15126;42.186;24.340;2023-08-30T13:03:24;16.13;;;12.43;;
27728;SDS011;15126;42.186;24.340;2023-08-30T13:05:51;17.70;;;12.98;;
27728;SDS011;15126;42.186;24.340;2023-08-30T13:08:18;14.88;;;13.48;;
27728;SDS011;15126;42.186;24.340;2023-08-30T13:10:46;17.05;;;14.70;;
27728;SDS011;15126;42.186;24.340;2023-08-30T13:13:12;16.95;;;13.57;;
27728;SDS011;15126;42.186;24.340;2023-08-30T13:15:39;14.20;;;12.90;;
27728;SDS011;15126;42.186;24.340;2023-08-30T13:18:06;14.40;;;12.88;;
27728;SDS011;15126;42.186;24.340;2023-08-30T13:20:37;13.27;;;12.07;;
27728;SDS011;15126;42.186;24.340;2023-08-30T13:23:04;15.77;;;13.68;;
27728;SDS011;15126;42.186;24.340;2023-08-30T13:25:31;12.93;;;11.50;;
27728;SDS011;15126;42.186;24.340;2023-08-30T13:27:59;24.10;;;13.63;;
27728;SDS011;15126;42.186;24.340;2023-08-30T13:30:26;14.07;;;12.65;;
27728;SDS011;15126;42.186;24.340;2023-08-30T13:32:53;13.85;;;12.55;;
27728;SDS011;15126;42.186;24.340;2023-08-30T13:35:19;13.65;;;12.60;;
27728;SDS011;15126;42.186;24.340;2023-08-30T13:37:46;13.20;;;11.77;;
27728;SDS011;15126;42.186;24.340;2023-08-30T13:40:13;12.85;;;11.75;;
27728;SDS011;15126;42.186;24.340;2023-08-30T13:42:40;14.13;;;11.68;;
27728;SDS011;15126;42.186;24.340;2023-08-30T13:45:08;13.27;;;11.95;;
27728;SDS011;15126;42.186;24.340;2023-08-30T13:47:36;13.88;;;12.52;;
27728;SDS011;15126;42.186;24.340;2023-08-30T13:50:04;13.45;;;11.68;;
27728;SDS011;15126;42.186;24.340;2023-08-30T13:52:32;12.27;;;11.18;;
27728;SDS011;15126;42.186;24.340;2023-08-30T13:54:59;12.25;;;11.05;;
27728;SDS011;15126;42.186;24.340;2023-08-30T13:57:25;13.70;;;10.60;;
27728;SDS011;15126;42.186;24.340;2023-08-30T13:59:52;12.98;;;11.55;;
27728;SDS011;15126;42.186;24.340;2023-08-30T14:02:20;12.52;;;11.20;;
27728;SDS011;15126;42.186;24.340;2023-08-30T14:04:47;18.45;;;12.18;;
27728;SDS011;15126;42.186;24.340;2023-08-30T14:07:14;16.55;;;12.52;;
27728;SDS011;15126;42.186;24.340;2023-08-30T14:09:41;13.48;;;12.07;;
27728;SDS011;15126;42.186;24.340;2023-08-30T14:12:08;14.55;;;13.27;;
27728;SDS011;15126;42.186;24.340;2023-08-30T14:14:35;13.90;;;12.10;;
27728;SDS011;15126;42.186;24.340;2023-08-30T14:17:02;13.77;;;12.00;;
27728;SDS011;15126;42.186;24.340;2023-08-30T14:19:33;13.05;;;11.65;;